createdAt,value
2023-03-17T00:00:45.180Z,99736.72
2023-03-17T00:03:20.607Z,99742.75
2023-03-17T00:05:50.439Z,99749.91
2023-03-17T00:08:23.183Z,99758.72
2023-03-17T00:10:54.330Z,99746.63
2023-03-17T00:13:24.187Z,99749.19
2023-03-17T00:15:56.182Z,99754.66
2023-03-17T00:18:25.930Z,99760.94
2023-03-17T00:20:55.002Z,99753.94
2023-03-17T00:23:26.058Z,99764.97
2023-03-17T00:25:57.484Z,99763.84
2023-03-17T00:28:28.524Z,99774.69
2023-03-17T00:31:01.078Z,99771.19
2023-03-17T00:33:33.396Z,99782.72
2023-03-17T00:36:03.135Z,99782.56
2023-03-17T00:38:32.216Z,99785.25
2023-03-17T00:41:03.339Z,99786.75
2023-03-17T00:43:32.751Z,99784.38
2023-03-17T00:46:01.700Z,99789.50
2023-03-17T00:48:31.125Z,99787.50
2023-03-17T00:51:00.187Z,99779.97
2023-03-17T00:53:31.030Z,99780.75
2023-03-17T00:56:03.783Z,99791.34
2023-03-17T00:58:35.213Z,99789.50
2023-03-17T01:01:04.293Z,99792.22
2023-03-17T01:03:34.522Z,99799.38
2023-03-17T01:06:06.045Z,99797.88
2023-03-17T01:08:35.461Z,99810.72
2023-03-17T01:11:06.866Z,99804.19
2023-03-17T01:13:36.843Z,99807.47
2023-03-17T01:16:10.425Z,99811.28
2023-03-17T01:18:40.040Z,99804.22
2023-03-17T01:21:09.215Z,99814.28
2023-03-17T01:23:39.035Z,99821.22
2023-03-17T01:26:09.722Z,99831.88
2023-03-17T01:28:39.377Z,99819.97
2023-03-17T01:31:08.490Z,99817.63
2023-03-17T01:33:37.389Z,99831.69
2023-03-17T01:36:07.042Z,99833.94
2023-03-17T01:38:36.642Z,99840.91
2023-03-17T01:41:05.976Z,99843.44
2023-03-17T01:43:36.726Z,99852.41
2023-03-17T01:46:29.337Z,99858.06
2023-03-17T01:49:16.603Z,99863.72
2023-03-17T01:51:54.869Z,99865.53
2023-03-17T01:54:28.358Z,99871.59
2023-03-17T01:57:00.061Z,99874.34
2023-03-17T01:59:36.232Z,99879.28
2023-03-17T02:02:09.364Z,99875.09
2023-03-17T02:04:40.401Z,99886.97
2023-03-17T02:07:10.284Z,99875.25
2023-03-17T02:09:44.907Z,99886.19
2023-03-17T02:12:15.418Z,99890.94
2023-03-17T02:14:46.862Z,99894.63
2023-03-17T02:17:16.017Z,99899.81
2023-03-17T02:19:44.935Z,99898.69
2023-03-17T02:22:16.597Z,99899.38
2023-03-17T02:24:52.201Z,99897.91
2023-03-17T02:27:25.503Z,99886.34
2023-03-17T02:29:55.682Z,99895.69
2023-03-17T02:32:25.207Z,99905.25
2023-03-17T02:34:54.376Z,99908.03
2023-03-17T02:37:24.820Z,99906.16
2023-03-17T02:39:54.944Z,99903.19
2023-03-17T02:42:24.072Z,99902.06
2023-03-17T02:44:53.513Z,99903.03
2023-03-17T02:47:23.610Z,99906.53
2023-03-17T02:49:53.124Z,99907.06
2023-03-17T02:52:22.170Z,99917.53
2023-03-17T02:54:52.988Z,99904.88
2023-03-17T02:57:22.190Z,99911.13
2023-03-17T02:59:51.499Z,99919.53
2023-03-17T03:02:20.541Z,99912.38
2023-03-17T03:04:50.554Z,99918.19
2023-03-17T03:07:19.480Z,99912.81
2023-03-17T03:09:48.401Z,99929.66
2023-03-17T03:12:18.790Z,99928.94
2023-03-17T03:14:47.780Z,99937.69
2023-03-17T03:17:16.852Z,99928.25
2023-03-17T03:19:45.904Z,99928.03
2023-03-17T03:22:14.869Z,99935.28
2023-03-17T03:24:44.136Z,99950.44
2023-03-17T03:27:13.272Z,99954.81
2023-03-17T03:29:43.696Z,99960.19
2023-03-17T03:32:12.658Z,99984.63
2023-03-17T03:34:41.607Z,99980.56
2023-03-17T03:37:10.772Z,99995.81
2023-03-17T03:39:39.861Z,99997.66
2023-03-17T03:42:09.741Z,100007.75
2023-03-17T03:44:38.811Z,100007.06
2023-03-17T03:47:09.528Z,100004.50
2023-03-17T03:49:38.517Z,100026.25
2023-03-17T03:52:07.973Z,100025.28
2023-03-17T03:54:36.963Z,100022.72
2023-03-17T03:57:06.236Z,100015.84
2023-03-17T03:59:35.184Z,100017.91
2023-03-17T04:02:04.359Z,100029.47
2023-03-17T04:04:34.926Z,100015.00
2023-03-17T04:07:03.978Z,100039.91
2023-03-17T04:09:33.181Z,100032.28
2023-03-17T04:12:02.234Z,100037.59
2023-03-17T04:14:31.198Z,100041.28
2023-03-17T04:17:00.099Z,100044.59
2023-03-17T04:19:29.101Z,100054.03
2023-03-17T04:21:59.433Z,100052.06
2023-03-17T04:24:29.646Z,100051.94
2023-03-17T04:26:58.653Z,100047.31
2023-03-17T04:29:27.555Z,100053.34
2023-03-17T04:31:56.712Z,100040.81
2023-03-17T04:34:26.045Z,100055.72
2023-03-17T04:36:55.110Z,100070.53
2023-03-17T04:39:25.525Z,100073.88
2023-03-17T04:41:54.392Z,100078.63
2023-03-17T04:44:23.475Z,100084.91
2023-03-17T04:46:52.899Z,100080.84
2023-03-17T04:49:22.787Z,100091.56
2023-03-17T04:51:51.748Z,100089.72
2023-03-17T04:54:20.842Z,100088.22
2023-03-17T04:56:51.323Z,100105.97
2023-03-17T04:59:20.616Z,100107.22
2023-03-17T05:01:49.501Z,100112.41
2023-03-17T05:04:30.868Z,100108.09
2023-03-17T05:07:01.423Z,100123.31
2023-03-17T05:09:30.704Z,100119.66
2023-03-17T05:12:01.280Z,100114.19
2023-03-17T05:14:30.380Z,100120.66
2023-03-17T05:16:59.490Z,100123.59
2023-03-17T05:19:28.496Z,100129.38
2023-03-17T05:21:57.437Z,100142.28
2023-03-17T05:24:27.180Z,100151.94
2023-03-17T05:26:56.335Z,100153.41
2023-03-17T05:29:26.979Z,100153.66
2023-03-17T05:31:56.143Z,100152.78
2023-03-17T05:34:25.958Z,100157.94
2023-03-17T05:36:55.005Z,100167.47
2023-03-17T05:39:24.236Z,100164.94
2023-03-17T05:41:53.470Z,100161.34
2023-03-17T05:44:22.664Z,100162.13
2023-03-17T05:46:53.136Z,100166.94
2023-03-17T05:49:22.222Z,100168.81
2023-03-17T05:51:51.474Z,100171.81
2023-03-17T05:54:20.543Z,100184.25
2023-03-17T05:56:49.953Z,100177.91
2023-03-17T05:59:19.010Z,100186.91
2023-03-17T06:01:47.969Z,100190.28
2023-03-17T06:04:18.367Z,100189.94
2023-03-17T06:06:47.611Z,100195.91
2023-03-17T06:09:16.599Z,100193.16
2023-03-17T06:11:45.998Z,100185.97
2023-03-17T06:14:14.995Z,100199.97
2023-03-17T06:16:44.090Z,100199.78
2023-03-17T06:19:13.161Z,100205.16
2023-03-17T06:21:43.524Z,100204.44
2023-03-17T06:24:12.645Z,100206.47
2023-03-17T06:26:42.603Z,100205.94
2023-03-17T06:29:12.664Z,100209.78
2023-03-17T06:31:42.343Z,100213.66
2023-03-17T06:34:12.166Z,100222.88
2023-03-17T06:36:41.613Z,100222.91
2023-03-17T06:39:12.129Z,100240.00
2023-03-17T06:41:41.504Z,100222.72
2023-03-17T06:44:10.645Z,100225.09
2023-03-17T06:46:39.709Z,100219.56
2023-03-17T06:49:09.088Z,100217.34
2023-03-17T06:51:38.087Z,100221.75
2023-03-17T06:54:07.074Z,100227.50
2023-03-17T06:56:37.368Z,100234.69
2023-03-17T06:59:07.602Z,100232.84
2023-03-17T07:01:38.174Z,100237.06
2023-03-17T07:04:07.570Z,100251.81
2023-03-17T07:06:36.913Z,100258.94
2023-03-17T07:09:07.780Z,100252.88
2023-03-17T07:11:38.256Z,100259.34
2023-03-17T07:14:07.991Z,100246.63
2023-03-17T07:16:37.726Z,100256.34
2023-03-17T07:19:07.454Z,100259.69
2023-03-17T07:21:36.414Z,100276.44
2023-03-17T07:24:05.823Z,100279.38
2023-03-17T07:26:34.950Z,100269.63
2023-03-17T07:29:06.069Z,100271.09
2023-03-17T07:31:35.242Z,100265.81
2023-03-17T07:34:04.849Z,100271.09
2023-03-17T07:36:33.916Z,100277.72
2023-03-17T07:39:03.786Z,100284.69
2023-03-17T07:41:32.887Z,100277.28
2023-03-17T07:44:02.080Z,100282.75
2023-03-17T07:46:32.483Z,100281.84
2023-03-17T07:49:01.954Z,100282.91
2023-03-17T07:51:30.991Z,100289.31
2023-03-17T07:54:04.063Z,100291.81
2023-03-17T07:56:34.290Z,100302.09
2023-03-17T07:59:03.408Z,100291.09
2023-03-17T08:01:33.920Z,100298.13
2023-03-17T08:04:02.983Z,100308.78
2023-03-17T08:06:32.620Z,100299.97
2023-03-17T08:09:01.740Z,100303.59
2023-03-17T08:11:31.232Z,100315.47
2023-03-17T08:14:01.639Z,100318.63
2023-03-17T08:16:30.918Z,100340.75
2023-03-17T08:19:04.091Z,100329.16
2023-03-17T08:21:33.632Z,100330.97
2023-03-17T08:24:04.691Z,100337.69
2023-03-17T08:26:33.884Z,100343.00
2023-03-17T08:29:03.010Z,100345.34
2023-03-17T08:31:34.063Z,100341.66
2023-03-17T08:34:05.091Z,100340.16
2023-03-17T08:36:34.303Z,100349.03
2023-03-17T08:39:04.596Z,100358.00
2023-03-17T08:41:33.735Z,100354.75
2023-03-17T08:44:03.167Z,100365.31
2023-03-17T08:46:33.825Z,100371.91
2023-03-17T08:49:04.849Z,100396.25
2023-03-17T08:51:37.055Z,100377.78
2023-03-17T08:54:07.867Z,100374.84
2023-03-17T08:56:37.172Z,100386.09
2023-03-17T08:59:07.257Z,100386.09
2023-03-17T09:01:36.620Z,100383.72
2023-03-17T09:04:07.303Z,100382.25
2023-03-17T09:06:36.282Z,100384.81
2023-03-17T09:09:05.399Z,100372.41
2023-03-17T09:11:35.117Z,100379.38
2023-03-17T09:14:04.369Z,100375.69
2023-03-17T09:16:35.081Z,100388.38
2023-03-17T09:19:04.439Z,100398.94
2023-03-17T09:21:34.790Z,100394.50
2023-03-17T09:24:03.783Z,100398.94
2023-03-17T09:26:32.781Z,100401.22
2023-03-17T09:29:04.328Z,100412.50
2023-03-17T09:31:36.389Z,100424.06
2023-03-17T09:34:06.481Z,100391.41
2023-03-17T09:36:37.866Z,100409.50
2023-03-17T09:39:07.071Z,100396.38
2023-03-17T09:41:57.135Z,100397.09
2023-03-17T09:44:40.595Z,100409.53
2023-03-17T09:47:29.964Z,100400.16
2023-03-17T09:50:01.556Z,100404.13
2023-03-17T09:52:36.468Z,100401.22
2023-03-17T09:55:09.509Z,100408.66
2023-03-17T09:57:41.061Z,100393.59
2023-03-17T10:00:18.318Z,100409.84
2023-03-17T10:02:47.603Z,100416.50
2023-03-17T10:05:22.588Z,100433.84
2023-03-17T10:08:03.361Z,100423.91
2023-03-17T10:10:40.697Z,100438.66
2023-03-17T10:13:23.327Z,100431.81
2023-03-17T10:15:55.654Z,100426.06
2023-03-17T10:18:27.938Z,100440.53
2023-03-17T10:21:02.058Z,100430.56
2023-03-17T10:23:34.894Z,100447.03
2023-03-17T10:26:09.696Z,100426.84
2023-03-17T10:28:39.420Z,100464.41
2023-03-17T10:31:17.544Z,100462.59
2023-03-17T10:33:52.466Z,100451.16
2023-03-17T10:36:35.812Z,100455.97
2023-03-17T10:39:08.723Z,100469.97
2023-03-17T10:41:41.506Z,100469.22
2023-03-17T10:44:12.130Z,100454.41
2023-03-17T10:46:41.459Z,100467.72
2023-03-17T10:49:18.335Z,100477.50
2023-03-17T10:51:48.215Z,100484.34
2023-03-17T10:54:20.766Z,100485.66
2023-03-17T10:56:58.944Z,100481.03
2023-03-17T11:02:16.989Z,100479.16
2023-03-17T11:04:46.361Z,100489.13
2023-03-17T11:07:19.786Z,100477.88
2023-03-17T11:09:52.782Z,100485.06
2023-03-17T11:12:26.835Z,100475.06
2023-03-17T11:15:01.645Z,100490.56
2023-03-17T11:17:44.457Z,100494.63
2023-03-17T11:20:22.366Z,100491.28
2023-03-17T11:22:57.520Z,100504.97
2023-03-17T11:25:29.692Z,100504.00
2023-03-17T11:28:12.072Z,100500.13
2023-03-17T11:30:46.033Z,100512.34
2023-03-17T11:33:29.302Z,100507.94
2023-03-17T11:36:03.584Z,100508.28
2023-03-17T11:38:36.435Z,100499.41
2023-03-17T11:41:41.890Z,100515.63
2023-03-17T11:44:37.390Z,100501.41
2023-03-17T11:47:15.196Z,100510.88
2023-03-17T11:49:49.138Z,100524.00
2023-03-17T11:52:24.888Z,100503.88
2023-03-17T11:55:02.843Z,100510.13
2023-03-17T11:57:38.217Z,100506.06
2023-03-17T12:00:16.725Z,100504.38
2023-03-17T12:02:51.488Z,100500.34
2023-03-17T12:05:25.258Z,100503.97
2023-03-17T12:07:59.042Z,100517.28
2023-03-17T12:10:34.619Z,100516.75
2023-03-17T12:13:10.227Z,100515.09
2023-03-17T12:15:44.055Z,100513.25
2023-03-17T12:18:18.948Z,100504.59
2023-03-17T12:20:52.821Z,100517.91
2023-03-17T12:23:30.640Z,100519.38
2023-03-17T12:26:07.376Z,100530.44
2023-03-17T12:28:47.785Z,100530.59
2023-03-17T12:31:21.887Z,100516.22
2023-03-17T12:33:58.942Z,100514.34
2023-03-17T12:36:28.359Z,100513.28
2023-03-17T12:39:02.588Z,100521.00
2023-03-17T12:41:46.698Z,100540.94
2023-03-17T12:44:33.294Z,100538.00
2023-03-17T12:47:31.731Z,100525.25
2023-03-17T12:50:39.811Z,100543.34
2023-03-17T12:53:26.755Z,100534.47
2023-03-17T12:56:00.427Z,100527.47
2023-03-17T12:58:37.047Z,100530.44
2023-03-17T13:01:17.562Z,100550.00
2023-03-17T13:04:02.629Z,100550.75
2023-03-17T13:06:34.910Z,100557.03
2023-03-17T13:09:31.583Z,100554.09
2023-03-17T13:12:02.032Z,100550.75
2023-03-17T13:14:42.820Z,100568.84
2023-03-17T13:17:35.184Z,100561.84
2023-03-17T13:20:18.361Z,100569.97
2023-03-17T13:23:03.508Z,100568.28
2023-03-17T13:25:35.247Z,100554.31
2023-03-17T13:28:26.362Z,100580.47
2023-03-17T13:31:11.512Z,100573.31
2023-03-17T13:33:47.498Z,100573.84
2023-03-17T13:36:40.053Z,100585.09
2023-03-17T13:39:42.647Z,100574.06
2023-03-17T13:42:38.862Z,100580.31
2023-03-17T13:45:22.018Z,100587.34
2023-03-17T13:47:52.751Z,100585.31
2023-03-17T13:50:26.298Z,100576.63
2023-03-17T13:52:58.332Z,100585.84
2023-03-17T13:55:36.466Z,100589.72
2023-03-17T13:58:27.959Z,100583.63
2023-03-17T14:01:02.658Z,100587.31
2023-03-17T14:03:38.832Z,100595.03
2023-03-17T14:06:13.003Z,100602.03
2023-03-17T14:08:47.938Z,100606.84
2023-03-17T14:11:28.436Z,100616.41
2023-03-17T14:14:15.213Z,100608.34
2023-03-17T14:16:56.724Z,100634.69
2023-03-17T14:19:28.203Z,100616.41
2023-03-17T14:22:04.585Z,100623.53
2023-03-17T14:24:35.044Z,100617.28
2023-03-17T14:27:08.157Z,100621.88
2023-03-17T14:29:38.655Z,100627.19
2023-03-17T14:32:14.357Z,100615.91
2023-03-17T14:34:48.396Z,100630.84
2023-03-17T14:37:19.460Z,100634.81
2023-03-17T14:39:52.484Z,100635.56
2023-03-17T14:42:27.267Z,100640.84
2023-03-17T14:45:03.897Z,100645.59
2023-03-17T14:47:40.039Z,100652.94
2023-03-17T14:50:18.216Z,100658.94
2023-03-17T14:52:51.353Z,100653.63
2023-03-17T14:55:21.043Z,100669.56
2023-03-17T14:57:53.065Z,100671.69
2023-03-17T15:00:34.351Z,100670.19
2023-03-17T15:03:05.544Z,100681.59
2023-03-17T15:05:42.731Z,100683.53
2023-03-17T15:08:41.491Z,100681.91
2023-03-17T15:11:19.337Z,100680.75
2023-03-17T15:13:49.949Z,100687.09
2023-03-17T15:16:23.483Z,100687.03
2023-03-17T15:19:03.398Z,100696.66
2023-03-17T15:21:36.364Z,100688.13
2023-03-17T15:24:24.498Z,100691.69
2023-03-17T15:27:01.393Z,100698.34
2023-03-17T15:29:31.036Z,100706.03
2023-03-17T15:32:14.199Z,100714.09
2023-03-17T15:34:43.254Z,100716.16
2023-03-17T15:37:19.769Z,100720.44
2023-03-17T15:39:51.434Z,100720.53
2023-03-17T15:42:22.430Z,100727.84
2023-03-17T15:44:51.498Z,100724.88
2023-03-17T15:47:22.256Z,100728.16
2023-03-17T15:49:52.106Z,100731.16
2023-03-17T15:52:25.049Z,100727.44
2023-03-17T15:54:57.165Z,100731.56
2023-03-17T15:57:27.354Z,100728.56
2023-03-17T15:59:56.737Z,100738.00
2023-03-17T16:02:30.117Z,100743.81
2023-03-17T16:05:01.597Z,100751.78
2023-03-17T16:07:32.471Z,100753.50
2023-03-17T16:10:02.837Z,100761.88
2023-03-17T16:12:31.974Z,100770.91
2023-03-17T16:15:05.409Z,100760.53
2023-03-17T16:17:36.911Z,100774.59
2023-03-17T16:20:06.677Z,100781.38
2023-03-17T16:22:42.081Z,100779.00
2023-03-17T16:25:29.586Z,100783.53
2023-03-17T16:28:00.566Z,100782.31
2023-03-17T16:30:31.652Z,100795.88
2023-03-17T16:33:03.615Z,100795.53
2023-03-17T16:35:32.985Z,100805.88
2023-03-17T16:38:02.075Z,100812.22
2023-03-17T16:40:38.323Z,100819.63
2023-03-17T16:43:24.236Z,100832.09
2023-03-17T16:45:55.597Z,100820.53
2023-03-17T16:48:24.940Z,100842.06
2023-03-17T16:50:54.361Z,100827.13
2023-03-17T16:53:24.308Z,100833.75
2023-03-17T16:55:55.893Z,100842.50
2023-03-17T16:58:26.534Z,100850.19
2023-03-17T17:00:59.916Z,100846.50
2023-03-17T17:03:29.534Z,100848.47
2023-03-17T17:06:03.186Z,100850.31
2023-03-17T17:08:32.320Z,100861.50
2023-03-17T17:11:03.173Z,100861.56
2023-03-17T17:13:32.289Z,100864.84
2023-03-17T17:16:01.788Z,100865.38
2023-03-17T17:18:31.006Z,100861.81
2023-03-17T17:20:59.999Z,100875.16
2023-03-17T17:23:28.990Z,100871.25
2023-03-17T17:25:58.033Z,100874.28
2023-03-17T17:28:28.581Z,100879.84
2023-03-17T17:30:58.677Z,100874.09
2023-03-17T17:33:27.720Z,100880.94
2023-03-17T17:35:56.897Z,100886.59
2023-03-17T17:38:28.224Z,100886.81
2023-03-17T17:40:58.836Z,100890.09
2023-03-17T17:43:29.420Z,100890.75
2023-03-17T17:45:58.878Z,100892.22
2023-03-17T17:48:29.332Z,100892.00
2023-03-17T17:50:58.884Z,100896.69
2023-03-17T17:53:28.163Z,100903.53
2023-03-17T17:55:59.269Z,100904.72
2023-03-17T17:58:30.611Z,100906.19
2023-03-17T18:01:00.047Z,100901.56
2023-03-17T18:03:31.632Z,100916.66
2023-03-17T18:06:01.536Z,100923.66
2023-03-17T18:08:30.778Z,100928.56
2023-03-17T18:10:59.906Z,100924.94
2023-03-17T18:13:30.414Z,100932.38
2023-03-17T18:15:59.473Z,100929.16
2023-03-17T18:18:28.637Z,100935.44
2023-03-17T18:20:57.829Z,100945.97
2023-03-17T18:23:26.875Z,100942.94
2023-03-17T18:26:00.793Z,100949.69
2023-03-17T18:28:31.737Z,100950.34
2023-03-17T18:31:10.772Z,100955.72
2023-03-17T18:33:41.663Z,100951.81
2023-03-17T18:36:11.826Z,100966.22
2023-03-17T18:38:40.855Z,100962.78
2023-03-17T18:41:11.218Z,100965.34
2023-03-17T18:43:44.958Z,100969.53
2023-03-17T18:46:14.530Z,100971.16
2023-03-17T18:48:43.799Z,100979.06
2023-03-17T18:51:12.909Z,100977.00
2023-03-17T18:53:42.058Z,100977.91
2023-03-17T18:56:11.677Z,100983.72
2023-03-17T18:58:42.167Z,100980.00
2023-03-17T19:01:11.264Z,100987.22
2023-03-17T19:03:40.884Z,100987.00
2023-03-17T19:06:12.757Z,100997.69
2023-03-17T19:08:42.553Z,101004.19
2023-03-17T19:11:14.066Z,101006.06
2023-03-17T19:13:45.609Z,101005.59
2023-03-17T19:16:16.852Z,101007.19
2023-03-17T19:18:52.808Z,101009.97
2023-03-17T19:21:22.246Z,101012.75
2023-03-17T19:23:52.192Z,101009.72
2023-03-17T19:26:21.868Z,101011.13
2023-03-17T19:28:52.400Z,101011.84
2023-03-17T19:31:21.384Z,101016.47
2023-03-17T19:33:50.524Z,101020.88
2023-03-17T19:36:19.954Z,101017.84
2023-03-17T19:38:49.462Z,101026.91
2023-03-17T19:41:18.844Z,101024.81
2023-03-17T19:43:47.990Z,101024.13
2023-03-17T19:46:18.652Z,101029.47
2023-03-17T19:48:48.010Z,101028.06
2023-03-17T19:51:17.161Z,101034.78
2023-03-17T19:53:46.110Z,101028.28
2023-03-17T19:56:15.479Z,101028.28
2023-03-17T19:58:44.803Z,101038.94
2023-03-17T20:01:14.192Z,101033.34
2023-03-17T20:03:44.919Z,101041.97
2023-03-17T20:06:14.706Z,101044.53
2023-03-17T20:08:44.346Z,101047.75
2023-03-17T20:11:14.367Z,101050.09
2023-03-17T20:13:43.579Z,101046.38
2023-03-17T20:16:13.080Z,101053.38
2023-03-17T20:18:42.067Z,101048.25
2023-03-17T20:21:15.512Z,101049.16
2023-03-17T20:23:44.669Z,101050.53
2023-03-17T20:26:13.604Z,101052.63
2023-03-17T20:28:42.514Z,101050.09
2023-03-17T20:31:11.851Z,101056.56
2023-03-17T20:33:41.359Z,101054.72
2023-03-17T20:36:10.582Z,101054.47
2023-03-17T20:38:41.188Z,101058.22
2023-03-17T20:41:11.822Z,101058.00
2023-03-17T20:43:41.882Z,101063.31
2023-03-17T20:46:16.673Z,101065.44
2023-03-17T20:48:47.850Z,101064.47
2023-03-17T20:51:17.519Z,101068.19
2023-03-17T20:53:51.049Z,101068.63
2023-03-17T20:56:22.432Z,101071.81
2023-03-17T20:58:53.344Z,101073.88
2023-03-17T21:01:23.807Z,101080.84
2023-03-17T21:03:53.761Z,101083.63
2023-03-17T21:06:25.859Z,101077.16
2023-03-17T21:08:57.131Z,101080.84
2023-03-17T21:11:26.882Z,101083.81
2023-03-17T21:13:56.399Z,101078.22
2023-03-17T21:16:27.947Z,101087.03
2023-03-17T21:18:57.717Z,101083.75
2023-03-17T21:21:27.400Z,101088.38
2023-03-17T21:23:58.186Z,101088.59
2023-03-17T21:26:27.269Z,101084.19
2023-03-17T21:28:56.985Z,101085.66
2023-03-17T21:31:26.411Z,101094.41
2023-03-17T21:33:55.630Z,101092.78
2023-03-17T21:36:24.585Z,101092.56
2023-03-17T21:38:53.467Z,101101.34
2023-03-17T21:41:32.271Z,101105.94
2023-03-17T21:44:01.937Z,101103.13
2023-03-17T21:46:31.851Z,101104.22
2023-03-17T21:49:01.643Z,101106.28
2023-03-17T21:51:31.135Z,101110.03
2023-03-17T21:54:00.458Z,101114.22
2023-03-17T21:56:30.802Z,101113.28
2023-03-17T21:58:59.813Z,101119.81
2023-03-17T22:01:29.391Z,101120.31
2023-03-17T22:03:58.381Z,101123.53
2023-03-17T22:06:28.475Z,101132.78
2023-03-17T22:08:57.677Z,101131.09
2023-03-17T22:11:26.765Z,101118.81
2023-03-17T22:13:57.905Z,101130.84
2023-03-17T22:16:27.195Z,101142.91
2023-03-17T22:18:56.520Z,101144.03
2023-03-17T22:21:25.560Z,101143.28
2023-03-17T22:23:54.908Z,101141.81
2023-03-17T22:26:24.259Z,101147.59
2023-03-17T22:28:53.279Z,101141.06
2023-03-17T22:31:25.205Z,101149.84
2023-03-17T22:33:56.897Z,101149.34
2023-03-17T22:36:26.733Z,101153.28
2023-03-17T22:38:56.686Z,101152.81
2023-03-17T22:41:28.401Z,101151.13
2023-03-17T22:43:58.454Z,101165.66
2023-03-17T22:46:29.085Z,101160.63
2023-03-17T22:48:58.002Z,101167.06
2023-03-17T22:51:28.551Z,101174.06
2023-03-17T22:53:57.948Z,101163.59
2023-03-17T22:56:27.382Z,101171.22
2023-03-17T22:58:56.546Z,101178.59
2023-03-17T23:01:26.139Z,101182.75
2023-03-17T23:03:57.194Z,101183.69
2023-03-17T23:06:27.054Z,101180.47
2023-03-17T23:08:56.171Z,101186.41
2023-03-17T23:11:26.437Z,101195.38
2023-03-17T23:13:56.624Z,101197.31
2023-03-17T23:16:25.868Z,101194.94
2023-03-17T23:18:56.398Z,101201.66
2023-03-17T23:21:29.327Z,101197.41
2023-03-17T23:23:58.311Z,101195.13
2023-03-17T23:26:27.649Z,101199.31
2023-03-17T23:28:56.692Z,101204.78
2023-03-17T23:31:25.869Z,101202.28
2023-03-17T23:33:56.831Z,101210.16
2023-03-17T23:36:25.895Z,101209.34
2023-03-17T23:38:55.016Z,101201.91
2023-03-17T23:41:24.042Z,101213.44
2023-03-17T23:43:53.236Z,101208.78
2023-03-17T23:46:22.221Z,101215.97
2023-03-17T23:48:51.253Z,101213.44
2023-03-17T23:51:22.468Z,101213.72
2023-03-17T23:53:53.005Z,101224.00
2023-03-17T23:56:21.912Z,101224.69
2023-03-17T23:58:50.783Z,101219.78
